sensor_id;sensor_type;location;lat;lon;timestamp;P1;durP1;ratioP1;P2;durP2;ratioP2
15198;SDS011;7700;48.654;9.070;2022-12-18T00:01:57;48.43;;;23.93;;
15198;SDS011;7700;48.654;9.070;2022-12-18T00:04:24;47.57;;;26.20;;
15198;SDS011;7700;48.654;9.070;2022-12-18T00:06:50;44.00;;;25.03;;
15198;SDS011;7700;48.654;9.070;2022-12-18T00:09:17;42.57;;;24.43;;
15198;SDS011;7700;48.654;9.070;2022-12-18T00:11:43;41.47;;;23.80;;
15198;SDS011;7700;48.654;9.070;2022-12-18T00:14:09;38.73;;;23.93;;
15198;SDS011;7700;48.654;9.070;2022-12-18T00:16:36;37.37;;;22.23;;
15198;SDS011;7700;48.654;9.070;2022-12-18T00:19:03;39.33;;;22.27;;
15198;SDS011;7700;48.654;9.070;2022-12-18T00:21:29;36.00;;;21.97;;
15198;SDS011;7700;48.654;9.070;2022-12-18T00:23:56;39.17;;;22.07;;
15198;SDS011;7700;48.654;9.070;2022-12-18T00:26:23;38.03;;;21.83;;
15198;SDS011;7700;48.654;9.070;2022-12-18T00:28:50;40.57;;;22.03;;
15198;SDS011;7700;48.654;9.070;2022-12-18T00:31:17;41.37;;;21.93;;
15198;SDS011;7700;48.654;9.070;2022-12-18T00:33:44;39.20;;;21.40;;
15198;SDS011;7700;48.654;9.070;2022-12-18T00:36:11;37.70;;;22.77;;
15198;SDS011;7700;48.654;9.070;2022-12-18T00:38:37;39.03;;;22.37;;
15198;SDS011;7700;48.654;9.070;2022-12-18T00:41:03;42.67;;;25.00;;
15198;SDS011;7700;48.654;9.070;2022-12-18T00:43:29;40.73;;;23.80;;
15198;SDS011;7700;48.654;9.070;2022-12-18T00:45:55;36.37;;;19.43;;
15198;SDS011;7700;48.654;9.070;2022-12-18T00:48:21;39.53;;;20.37;;
15198;SDS011;7700;48.654;9.070;2022-12-18T00:50:48;30.03;;;19.33;;
15198;SDS011;7700;48.654;9.070;2022-12-18T00:53:14;35.57;;;20.17;;
15198;SDS011;7700;48.654;9.070;2022-12-18T00:55:40;32.37;;;19.43;;
15198;SDS011;7700;48.654;9.070;2022-12-18T00:58:07;33.97;;;19.87;;
15198;SDS011;7700;48.654;9.070;2022-12-18T01:00:33;40.77;;;21.80;;
15198;SDS011;7700;48.654;9.070;2022-12-18T01:02:59;39.23;;;21.23;;
15198;SDS011;7700;48.654;9.070;2022-12-18T01:05:25;38.00;;;21.27;;
15198;SDS011;7700;48.654;9.070;2022-12-18T01:07:52;36.20;;;21.97;;
15198;SDS011;7700;48.654;9.070;2022-12-18T01:10:18;34.73;;;20.77;;
15198;SDS011;7700;48.654;9.070;2022-12-18T01:12:44;33.40;;;18.60;;
15198;SDS011;7700;48.654;9.070;2022-12-18T01:15:10;33.93;;;22.73;;
15198;SDS011;7700;48.654;9.070;2022-12-18T01:17:37;35.93;;;20.80;;
15198;SDS011;7700;48.654;9.070;2022-12-18T01:20:03;30.87;;;18.17;;
15198;SDS011;7700;48.654;9.070;2022-12-18T01:22:29;36.93;;;21.07;;
15198;SDS011;7700;48.654;9.070;2022-12-18T01:24:56;31.90;;;18.70;;
15198;SDS011;7700;48.654;9.070;2022-12-18T01:27:21;33.90;;;21.07;;
15198;SDS011;7700;48.654;9.070;2022-12-18T01:29:48;35.60;;;19.70;;
15198;SDS011;7700;48.654;9.070;2022-12-18T01:32:14;31.67;;;19.57;;
15198;SDS011;7700;48.654;9.070;2022-12-18T01:34:40;32.97;;;20.63;;
15198;SDS011;7700;48.654;9.070;2022-12-18T01:37:06;31.90;;;20.57;;
15198;SDS011;7700;48.654;9.070;2022-12-18T01:39:32;36.27;;;20.97;;
15198;SDS011;7700;48.654;9.070;2022-12-18T01:41:59;31.83;;;20.03;;
15198;SDS011;7700;48.654;9.070;2022-12-18T01:47:24;38.87;;;22.93;;
15198;SDS011;7700;48.654;9.070;2022-12-18T01:49:50;36.30;;;21.60;;
15198;SDS011;7700;48.654;9.070;2022-12-18T01:52:17;42.30;;;22.13;;
15198;SDS011;7700;48.654;9.070;2022-12-18T01:54:44;40.33;;;23.10;;
15198;SDS011;7700;48.654;9.070;2022-12-18T01:57:11;38.10;;;19.70;;
15198;SDS011;7700;48.654;9.070;2022-12-18T01:59:37;38.37;;;22.77;;
15198;SDS011;7700;48.654;9.070;2022-12-18T02:02:04;37.20;;;23.40;;
15198;SDS011;7700;48.654;9.070;2022-12-18T02:04:31;41.30;;;23.47;;
15198;SDS011;7700;48.654;9.070;2022-12-18T02:09:31;40.77;;;22.10;;
15198;SDS011;7700;48.654;9.070;2022-12-18T02:12:02;37.43;;;21.37;;
15198;SDS011;7700;48.654;9.070;2022-12-18T02:16:59;38.57;;;22.63;;
15198;SDS011;7700;48.654;9.070;2022-12-18T02:22:10;34.47;;;20.03;;
15198;SDS011;7700;48.654;9.070;2022-12-18T02:27:10;31.23;;;20.23;;
15198;SDS011;7700;48.654;9.070;2022-12-18T02:29:38;30.27;;;19.70;;
15198;SDS011;7700;48.654;9.070;2022-12-18T02:32:06;32.33;;;19.37;;
15198;SDS011;7700;48.654;9.070;2022-12-18T02:34:33;39.57;;;19.00;;
15198;SDS011;7700;48.654;9.070;2022-12-18T02:37:02;32.97;;;18.40;;
15198;SDS011;7700;48.654;9.070;2022-12-18T02:39:30;30.20;;;19.33;;
15198;SDS011;7700;48.654;9.070;2022-12-18T02:41:58;36.17;;;20.57;;
15198;SDS011;7700;48.654;9.070;2022-12-18T02:44:26;40.27;;;20.27;;
15198;SDS011;7700;48.654;9.070;2022-12-18T02:46:52;27.63;;;16.97;;
15198;SDS011;7700;48.654;9.070;2022-12-18T02:49:34;34.83;;;18.67;;
15198;SDS011;7700;48.654;9.070;2022-12-18T02:56:54;30.00;;;18.93;;
15198;SDS011;7700;48.654;9.070;2022-12-18T02:59:34;34.23;;;20.27;;
15198;SDS011;7700;48.654;9.070;2022-12-18T03:05:09;38.20;;;19.43;;
15198;SDS011;7700;48.654;9.070;2022-12-18T03:07:39;33.07;;;20.20;;
15198;SDS011;7700;48.654;9.070;2022-12-18T03:10:07;38.63;;;20.17;;
15198;SDS011;7700;48.654;9.070;2022-12-18T03:12:35;38.83;;;21.27;;
15198;SDS011;7700;48.654;9.070;2022-12-18T03:17:29;37.00;;;21.07;;
15198;SDS011;7700;48.654;9.070;2022-12-18T03:19:56;39.63;;;21.00;;
15198;SDS011;7700;48.654;9.070;2022-12-18T03:22:24;39.10;;;21.87;;
15198;SDS011;7700;48.654;9.070;2022-12-18T03:24:50;40.60;;;21.70;;
15198;SDS011;7700;48.654;9.070;2022-12-18T03:27:17;31.63;;;20.50;;
15198;SDS011;7700;48.654;9.070;2022-12-18T03:29:45;36.53;;;21.17;;
15198;SDS011;7700;48.654;9.070;2022-12-18T03:32:19;32.57;;;20.07;;
15198;SDS011;7700;48.654;9.070;2022-12-18T03:34:47;38.40;;;24.00;;
15198;SDS011;7700;48.654;9.070;2022-12-18T03:37:14;43.07;;;25.57;;
15198;SDS011;7700;48.654;9.070;2022-12-18T03:39:40;36.63;;;22.23;;
15198;SDS011;7700;48.654;9.070;2022-12-18T03:44:44;36.10;;;19.57;;
15198;SDS011;7700;48.654;9.070;2022-12-18T03:47:24;39.87;;;21.23;;
15198;SDS011;7700;48.654;9.070;2022-12-18T03:54:47;38.00;;;23.17;;
15198;SDS011;7700;48.654;9.070;2022-12-18T03:57:18;36.37;;;21.13;;
15198;SDS011;7700;48.654;9.070;2022-12-18T03:59:45;36.63;;;22.40;;
15198;SDS011;7700;48.654;9.070;2022-12-18T04:02:12;35.33;;;21.37;;
15198;SDS011;7700;48.654;9.070;2022-12-18T04:04:40;37.70;;;21.73;;
15198;SDS011;7700;48.654;9.070;2022-12-18T04:07:08;35.73;;;21.03;;
15198;SDS011;7700;48.654;9.070;2022-12-18T04:09:34;39.33;;;21.37;;
15198;SDS011;7700;48.654;9.070;2022-12-18T04:12:00;38.17;;;20.93;;
15198;SDS011;7700;48.654;9.070;2022-12-18T04:14:26;38.70;;;20.57;;
15198;SDS011;7700;48.654;9.070;2022-12-18T04:16:52;35.90;;;22.07;;
15198;SDS011;7700;48.654;9.070;2022-12-18T04:19:18;33.07;;;20.17;;
15198;SDS011;7700;48.654;9.070;2022-12-18T04:21:44;36.37;;;22.20;;
15198;SDS011;7700;48.654;9.070;2022-12-18T04:24:10;33.80;;;21.67;;
15198;SDS011;7700;48.654;9.070;2022-12-18T04:26:36;35.37;;;22.37;;
15198;SDS011;7700;48.654;9.070;2022-12-18T04:29:03;38.90;;;20.77;;
15198;SDS011;7700;48.654;9.070;2022-12-18T04:31:29;41.43;;;23.70;;
15198;SDS011;7700;48.654;9.070;2022-12-18T04:33:55;36.27;;;23.37;;
15198;SDS011;7700;48.654;9.070;2022-12-18T04:36:21;41.33;;;22.87;;
15198;SDS011;7700;48.654;9.070;2022-12-18T04:38:47;36.07;;;22.83;;
15198;SDS011;7700;48.654;9.070;2022-12-18T04:41:13;38.77;;;23.23;;
15198;SDS011;7700;48.654;9.070;2022-12-18T04:43:39;37.50;;;21.87;;
15198;SDS011;7700;48.654;9.070;2022-12-18T04:46:05;33.77;;;21.83;;
15198;SDS011;7700;48.654;9.070;2022-12-18T04:48:32;36.47;;;22.70;;
15198;SDS011;7700;48.654;9.070;2022-12-18T04:50:58;37.77;;;23.63;;
15198;SDS011;7700;48.654;9.070;2022-12-18T04:53:24;34.10;;;21.63;;
15198;SDS011;7700;48.654;9.070;2022-12-18T04:55:50;32.73;;;21.17;;
15198;SDS011;7700;48.654;9.070;2022-12-18T04:58:16;37.07;;;22.17;;
15198;SDS011;7700;48.654;9.070;2022-12-18T05:00:42;38.77;;;21.30;;
15198;SDS011;7700;48.654;9.070;2022-12-18T05:03:08;34.70;;;22.67;;
15198;SDS011;7700;48.654;9.070;2022-12-18T05:05:34;35.67;;;21.37;;
15198;SDS011;7700;48.654;9.070;2022-12-18T05:08:01;39.90;;;22.10;;
15198;SDS011;7700;48.654;9.070;2022-12-18T05:10:27;38.13;;;21.43;;
15198;SDS011;7700;48.654;9.070;2022-12-18T05:12:53;37.20;;;21.63;;
15198;SDS011;7700;48.654;9.070;2022-12-18T05:15:29;33.33;;;20.10;;
15198;SDS011;7700;48.654;9.070;2022-12-18T05:17:56;34.53;;;20.93;;
15198;SDS011;7700;48.654;9.070;2022-12-18T05:20:22;35.97;;;21.80;;
15198;SDS011;7700;48.654;9.070;2022-12-18T05:22:48;34.33;;;20.90;;
15198;SDS011;7700;48.654;9.070;2022-12-18T05:25:14;37.77;;;20.73;;
15198;SDS011;7700;48.654;9.070;2022-12-18T05:27:40;36.53;;;21.63;;
15198;SDS011;7700;48.654;9.070;2022-12-18T05:30:06;40.43;;;21.17;;
15198;SDS011;7700;48.654;9.070;2022-12-18T05:32:33;34.00;;;21.10;;
15198;SDS011;7700;48.654;9.070;2022-12-18T05:34:59;34.07;;;21.63;;
15198;SDS011;7700;48.654;9.070;2022-12-18T05:37:25;36.67;;;20.30;;
15198;SDS011;7700;48.654;9.070;2022-12-18T05:39:51;36.60;;;21.17;;
15198;SDS011;7700;48.654;9.070;2022-12-18T05:42:17;36.33;;;20.70;;
15198;SDS011;7700;48.654;9.070;2022-12-18T05:44:43;35.07;;;19.73;;
15198;SDS011;7700;48.654;9.070;2022-12-18T05:47:09;41.37;;;21.80;;
15198;SDS011;7700;48.654;9.070;2022-12-18T05:49:35;34.17;;;21.37;;
15198;SDS011;7700;48.654;9.070;2022-12-18T05:52:01;37.33;;;21.33;;
15198;SDS011;7700;48.654;9.070;2022-12-18T05:54:27;33.37;;;20.70;;
15198;SDS011;7700;48.654;9.070;2022-12-18T05:56:53;38.87;;;19.87;;
15198;SDS011;7700;48.654;9.070;2022-12-18T05:59:19;35.83;;;20.87;;
15198;SDS011;7700;48.654;9.070;2022-12-18T06:01:45;36.63;;;21.83;;
15198;SDS011;7700;48.654;9.070;2022-12-18T06:04:14;35.03;;;21.70;;
15198;SDS011;7700;48.654;9.070;2022-12-18T06:06:40;39.20;;;21.83;;
15198;SDS011;7700;48.654;9.070;2022-12-18T06:09:06;33.47;;;20.50;;
15198;SDS011;7700;48.654;9.070;2022-12-18T06:11:34;31.80;;;19.80;;
15198;SDS011;7700;48.654;9.070;2022-12-18T06:14:01;30.13;;;19.53;;
15198;SDS011;7700;48.654;9.070;2022-12-18T06:16:27;37.53;;;20.83;;
15198;SDS011;7700;48.654;9.070;2022-12-18T06:19:00;37.33;;;20.97;;
15198;SDS011;7700;48.654;9.070;2022-12-18T06:21:26;38.93;;;20.40;;
15198;SDS011;7700;48.654;9.070;2022-12-18T06:23:53;30.93;;;18.23;;
15198;SDS011;7700;48.654;9.070;2022-12-18T06:26:19;34.83;;;19.43;;
15198;SDS011;7700;48.654;9.070;2022-12-18T06:28:45;36.07;;;18.70;;
15198;SDS011;7700;48.654;9.070;2022-12-18T06:31:13;34.17;;;19.23;;
15198;SDS011;7700;48.654;9.070;2022-12-18T06:33:39;29.07;;;17.93;;
15198;SDS011;7700;48.654;9.070;2022-12-18T06:36:05;33.07;;;20.03;;
15198;SDS011;7700;48.654;9.070;2022-12-18T06:38:32;29.60;;;18.33;;
15198;SDS011;7700;48.654;9.070;2022-12-18T06:40:59;29.00;;;19.07;;
15198;SDS011;7700;48.654;9.070;2022-12-18T06:43:25;41.83;;;25.30;;
15198;SDS011;7700;48.654;9.070;2022-12-18T06:45:51;41.30;;;25.30;;
15198;SDS011;7700;48.654;9.070;2022-12-18T06:48:20;35.07;;;23.53;;
15198;SDS011;7700;48.654;9.070;2022-12-18T06:50:47;33.90;;;21.80;;
15198;SDS011;7700;48.654;9.070;2022-12-18T06:53:13;35.33;;;21.97;;
15198;SDS011;7700;48.654;9.070;2022-12-18T06:55:39;39.20;;;23.60;;
15198;SDS011;7700;48.654;9.070;2022-12-18T06:58:05;35.07;;;21.47;;
15198;SDS011;7700;48.654;9.070;2022-12-18T07:00:31;31.90;;;20.27;;
15198;SDS011;7700;48.654;9.070;2022-12-18T07:02:57;40.70;;;22.47;;
15198;SDS011;7700;48.654;9.070;2022-12-18T07:05:23;35.10;;;20.23;;
15198;SDS011;7700;48.654;9.070;2022-12-18T07:07:49;34.30;;;20.33;;
15198;SDS011;7700;48.654;9.070;2022-12-18T07:10:15;32.77;;;19.77;;
15198;SDS011;7700;48.654;9.070;2022-12-18T07:12:41;32.37;;;20.13;;
15198;SDS011;7700;48.654;9.070;2022-12-18T07:15:07;34.73;;;19.07;;
15198;SDS011;7700;48.654;9.070;2022-12-18T07:17:33;30.70;;;18.40;;
15198;SDS011;7700;48.654;9.070;2022-12-18T07:19:59;28.33;;;16.53;;
15198;SDS011;7700;48.654;9.070;2022-12-18T07:22:26;31.53;;;19.67;;
15198;SDS011;7700;48.654;9.070;2022-12-18T07:24:52;33.77;;;19.90;;
15198;SDS011;7700;48.654;9.070;2022-12-18T07:27:18;31.13;;;19.63;;
15198;SDS011;7700;48.654;9.070;2022-12-18T07:29:44;31.67;;;20.10;;
15198;SDS011;7700;48.654;9.070;2022-12-18T07:32:10;33.97;;;20.37;;
15198;SDS011;7700;48.654;9.070;2022-12-18T07:34:36;31.03;;;20.37;;
15198;SDS011;7700;48.654;9.070;2022-12-18T07:37:02;30.20;;;19.30;;
15198;SDS011;7700;48.654;9.070;2022-12-18T07:39:28;30.47;;;18.40;;
15198;SDS011;7700;48.654;9.070;2022-12-18T07:41:54;31.70;;;19.00;;
15198;SDS011;7700;48.654;9.070;2022-12-18T07:44:38;30.77;;;18.63;;
15198;SDS011;7700;48.654;9.070;2022-12-18T07:47:05;29.13;;;18.13;;
15198;SDS011;7700;48.654;9.070;2022-12-18T07:49:31;29.57;;;18.80;;
15198;SDS011;7700;48.654;9.070;2022-12-18T07:51:57;35.23;;;21.90;;
15198;SDS011;7700;48.654;9.070;2022-12-18T07:54:23;36.60;;;25.53;;
15198;SDS011;7700;48.654;9.070;2022-12-18T07:56:50;35.60;;;25.27;;
15198;SDS011;7700;48.654;9.070;2022-12-18T07:59:16;39.27;;;25.97;;
15198;SDS011;7700;48.654;9.070;2022-12-18T08:01:42;38.40;;;23.33;;
15198;SDS011;7700;48.654;9.070;2022-12-18T08:04:08;43.40;;;27.10;;
15198;SDS011;7700;48.654;9.070;2022-12-18T08:06:34;72.67;;;45.33;;
15198;SDS011;7700;48.654;9.070;2022-12-18T08:09:00;84.90;;;51.83;;
15198;SDS011;7700;48.654;9.070;2022-12-18T08:11:26;58.23;;;38.83;;
15198;SDS011;7700;48.654;9.070;2022-12-18T08:13:53;38.77;;;27.27;;
15198;SDS011;7700;48.654;9.070;2022-12-18T08:16:19;32.20;;;24.27;;
15198;SDS011;7700;48.654;9.070;2022-12-18T08:18:45;32.47;;;23.07;;
15198;SDS011;7700;48.654;9.070;2022-12-18T08:23:37;43.23;;;30.27;;
15198;SDS011;7700;48.654;9.070;2022-12-18T08:26:04;34.97;;;24.67;;
15198;SDS011;7700;48.654;9.070;2022-12-18T08:28:30;29.20;;;23.47;;
15198;SDS011;7700;48.654;9.070;2022-12-18T08:30:56;32.33;;;23.00;;
15198;SDS011;7700;48.654;9.070;2022-12-18T08:33:22;32.23;;;24.80;;
15198;SDS011;7700;48.654;9.070;2022-12-18T08:35:48;39.60;;;24.83;;
15198;SDS011;7700;48.654;9.070;2022-12-18T08:38:14;31.03;;;22.73;;
15198;SDS011;7700;48.654;9.070;2022-12-18T08:40:40;39.80;;;31.10;;
15198;SDS011;7700;48.654;9.070;2022-12-18T08:43:07;36.17;;;25.77;;
15198;SDS011;7700;48.654;9.070;2022-12-18T08:45:54;32.17;;;24.07;;
15198;SDS011;7700;48.654;9.070;2022-12-18T08:48:21;33.83;;;24.70;;
15198;SDS011;7700;48.654;9.070;2022-12-18T08:50:55;36.03;;;25.73;;
15198;SDS011;7700;48.654;9.070;2022-12-18T08:53:21;34.07;;;25.90;;
15198;SDS011;7700;48.654;9.070;2022-12-18T08:55:50;35.57;;;27.77;;
15198;SDS011;7700;48.654;9.070;2022-12-18T08:58:16;34.17;;;25.70;;
15198;SDS011;7700;48.654;9.070;2022-12-18T09:00:42;38.33;;;28.27;;
15198;SDS011;7700;48.654;9.070;2022-12-18T09:03:12;35.57;;;28.10;;
15198;SDS011;7700;48.654;9.070;2022-12-18T09:05:38;45.97;;;32.60;;
15198;SDS011;7700;48.654;9.070;2022-12-18T09:08:04;57.10;;;40.33;;
15198;SDS011;7700;48.654;9.070;2022-12-18T09:10:30;41.13;;;31.50;;
15198;SDS011;7700;48.654;9.070;2022-12-18T09:12:56;44.10;;;33.73;;
15198;SDS011;7700;48.654;9.070;2022-12-18T09:15:22;36.13;;;26.57;;
15198;SDS011;7700;48.654;9.070;2022-12-18T09:17:49;33.07;;;25.80;;
15198;SDS011;7700;48.654;9.070;2022-12-18T09:20:15;35.27;;;25.97;;
15198;SDS011;7700;48.654;9.070;2022-12-18T09:22:41;33.33;;;27.03;;
15198;SDS011;7700;48.654;9.070;2022-12-18T09:25:07;35.47;;;27.27;;
15198;SDS011;7700;48.654;9.070;2022-12-18T09:27:34;35.00;;;26.67;;
15198;SDS011;7700;48.654;9.070;2022-12-18T09:30:00;29.63;;;24.67;;
15198;SDS011;7700;48.654;9.070;2022-12-18T09:32:26;41.30;;;31.10;;
15198;SDS011;7700;48.654;9.070;2022-12-18T09:34:52;40.20;;;32.73;;
15198;SDS011;7700;48.654;9.070;2022-12-18T09:37:18;34.83;;;29.97;;
15198;SDS011;7700;48.654;9.070;2022-12-18T09:39:44;41.93;;;33.53;;
15198;SDS011;7700;48.654;9.070;2022-12-18T09:42:12;33.77;;;27.27;;
15198;SDS011;7700;48.654;9.070;2022-12-18T09:44:41;33.80;;;27.37;;
15198;SDS011;7700;48.654;9.070;2022-12-18T09:47:15;43.97;;;35.63;;
15198;SDS011;7700;48.654;9.070;2022-12-18T09:49:44;29.23;;;24.70;;
15198;SDS011;7700;48.654;9.070;2022-12-18T09:52:23;28.83;;;22.70;;
15198;SDS011;7700;48.654;9.070;2022-12-18T09:54:59;30.27;;;22.30;;
15198;SDS011;7700;48.654;9.070;2022-12-18T09:57:26;28.67;;;22.60;;
15198;SDS011;7700;48.654;9.070;2022-12-18T09:59:56;29.13;;;23.70;;
15198;SDS011;7700;48.654;9.070;2022-12-18T10:03:30;28.93;;;22.67;;
15198;SDS011;7700;48.654;9.070;2022-12-18T10:14:00;23.17;;;19.80;;
15198;SDS011;7700;48.654;9.070;2022-12-18T10:16:29;28.60;;;22.33;;
15198;SDS011;7700;48.654;9.070;2022-12-18T10:26:52;29.23;;;24.27;;
15198;SDS011;7700;48.654;9.070;2022-12-18T10:29:18;31.23;;;23.13;;
15198;SDS011;7700;48.654;9.070;2022-12-18T10:31:45;25.50;;;20.90;;
15198;SDS011;7700;48.654;9.070;2022-12-18T10:34:11;28.07;;;21.73;;
15198;SDS011;7700;48.654;9.070;2022-12-18T10:36:39;29.23;;;22.63;;
15198;SDS011;7700;48.654;9.070;2022-12-18T10:39:21;31.63;;;23.83;;
15198;SDS011;7700;48.654;9.070;2022-12-18T10:41:48;27.33;;;22.90;;
15198;SDS011;7700;48.654;9.070;2022-12-18T10:44:23;29.70;;;22.37;;
15198;SDS011;7700;48.654;9.070;2022-12-18T10:46:53;27.90;;;22.37;;
15198;SDS011;7700;48.654;9.070;2022-12-18T10:49:27;26.30;;;21.70;;
15198;SDS011;7700;48.654;9.070;2022-12-18T10:54:39;30.60;;;25.57;;
15198;SDS011;7700;48.654;9.070;2022-12-18T10:57:28;27.37;;;21.80;;
15198;SDS011;7700;48.654;9.070;2022-12-18T10:59:57;24.77;;;20.10;;
15198;SDS011;7700;48.654;9.070;2022-12-18T11:02:34;23.50;;;20.17;;
15198;SDS011;7700;48.654;9.070;2022-12-18T11:05:00;22.50;;;18.67;;
15198;SDS011;7700;48.654;9.070;2022-12-18T11:07:35;22.13;;;18.97;;
15198;SDS011;7700;48.654;9.070;2022-12-18T11:10:15;21.90;;;18.60;;
15198;SDS011;7700;48.654;9.070;2022-12-18T11:12:42;22.20;;;17.90;;
15198;SDS011;7700;48.654;9.070;2022-12-18T11:15:14;22.27;;;17.43;;
15198;SDS011;7700;48.654;9.070;2022-12-18T11:17:40;22.23;;;17.20;;
15198;SDS011;7700;48.654;9.070;2022-12-18T11:20:19;22.97;;;18.20;;
15198;SDS011;7700;48.654;9.070;2022-12-18T11:22:56;25.10;;;18.03;;
15198;SDS011;7700;48.654;9.070;2022-12-18T11:25:22;25.67;;;20.07;;
15198;SDS011;7700;48.654;9.070;2022-12-18T11:27:53;23.23;;;18.87;;
15198;SDS011;7700;48.654;9.070;2022-12-18T11:30:21;24.77;;;18.97;;
15198;SDS011;7700;48.654;9.070;2022-12-18T11:32:47;22.53;;;17.70;;
15198;SDS011;7700;48.654;9.070;2022-12-18T11:35:16;22.87;;;18.00;;
15198;SDS011;7700;48.654;9.070;2022-12-18T11:37:43;21.13;;;17.00;;
15198;SDS011;7700;48.654;9.070;2022-12-18T11:40:18;22.70;;;18.13;;
15198;SDS011;7700;48.654;9.070;2022-12-18T11:42:51;21.67;;;17.07;;
15198;SDS011;7700;48.654;9.070;2022-12-18T11:45:27;22.93;;;17.07;;
15198;SDS011;7700;48.654;9.070;2022-12-18T11:51:05;23.77;;;18.50;;
15198;SDS011;7700;48.654;9.070;2022-12-18T11:53:12;21.17;;;16.63;;
15198;SDS011;7700;48.654;9.070;2022-12-18T11:55:41;22.63;;;17.37;;
15198;SDS011;7700;48.654;9.070;2022-12-18T12:00:41;22.30;;;17.90;;
15198;SDS011;7700;48.654;9.070;2022-12-18T12:06:07;22.90;;;17.57;;
15198;SDS011;7700;48.654;9.070;2022-12-18T12:08:43;23.07;;;17.47;;
15198;SDS011;7700;48.654;9.070;2022-12-18T12:11:15;22.80;;;17.73;;
15198;SDS011;7700;48.654;9.070;2022-12-18T12:16:25;22.23;;;16.40;;
15198;SDS011;7700;48.654;9.070;2022-12-18T12:18:56;25.63;;;18.93;;
15198;SDS011;7700;48.654;9.070;2022-12-18T12:21:40;24.20;;;18.03;;
15198;SDS011;7700;48.654;9.070;2022-12-18T12:39:34;24.23;;;17.30;;
15198;SDS011;7700;48.654;9.070;2022-12-18T12:42:02;23.83;;;16.97;;
15198;SDS011;7700;48.654;9.070;2022-12-18T12:44:50;24.93;;;18.63;;
15198;SDS011;7700;48.654;9.070;2022-12-18T12:47:19;29.17;;;18.97;;
15198;SDS011;7700;48.654;9.070;2022-12-18T12:49:46;27.47;;;19.40;;
15198;SDS011;7700;48.654;9.070;2022-12-18T12:52:28;29.30;;;19.70;;
15198;SDS011;7700;48.654;9.070;2022-12-18T12:54:55;30.67;;;20.40;;
15198;SDS011;7700;48.654;9.070;2022-12-18T12:57:35;29.77;;;19.93;;
15198;SDS011;7700;48.654;9.070;2022-12-18T13:08:21;28.03;;;19.73;;
15198;SDS011;7700;48.654;9.070;2022-12-18T13:10:31;26.70;;;18.50;;
15198;SDS011;7700;48.654;9.070;2022-12-18T13:20:34;27.17;;;17.67;;
15198;SDS011;7700;48.654;9.070;2022-12-18T13:23:01;27.50;;;19.07;;
15198;SDS011;7700;48.654;9.070;2022-12-18T13:25:28;26.03;;;18.33;;
15198;SDS011;7700;48.654;9.070;2022-12-18T13:28:05;27.10;;;18.50;;
15198;SDS011;7700;48.654;9.070;2022-12-18T13:36:09;29.57;;;19.23;;
15198;SDS011;7700;48.654;9.070;2022-12-18T13:38:35;29.60;;;19.17;;
15198;SDS011;7700;48.654;9.070;2022-12-18T13:41:24;29.40;;;19.03;;
15198;SDS011;7700;48.654;9.070;2022-12-18T13:43:49;29.87;;;19.23;;
15198;SDS011;7700;48.654;9.070;2022-12-18T13:46:28;30.73;;;19.00;;
15198;SDS011;7700;48.654;9.070;2022-12-18T13:51:24;33.07;;;20.53;;
15198;SDS011;7700;48.654;9.070;2022-12-18T13:53:55;28.50;;;18.97;;
15198;SDS011;7700;48.654;9.070;2022-12-18T13:56:27;28.33;;;19.00;;
15198;SDS011;7700;48.654;9.070;2022-12-18T14:01:34;30.43;;;19.87;;
15198;SDS011;7700;48.654;9.070;2022-12-18T14:04:10;27.80;;;19.17;;
15198;SDS011;7700;48.654;9.070;2022-12-18T14:06:36;28.33;;;18.93;;
15198;SDS011;7700;48.654;9.070;2022-12-18T14:09:02;31.13;;;20.17;;
15198;SDS011;7700;48.654;9.070;2022-12-18T14:11:28;27.50;;;19.10;;
15198;SDS011;7700;48.654;9.070;2022-12-18T14:13:55;33.07;;;21.10;;
15198;SDS011;7700;48.654;9.070;2022-12-18T14:16:22;36.93;;;23.50;;
15198;SDS011;7700;48.654;9.070;2022-12-18T14:18:57;34.30;;;20.30;;
15198;SDS011;7700;48.654;9.070;2022-12-18T14:21:28;29.63;;;20.27;;
15198;SDS011;7700;48.654;9.070;2022-12-18T14:24:04;30.83;;;19.67;;
15198;SDS011;7700;48.654;9.070;2022-12-18T14:26:31;31.33;;;19.67;;
15198;SDS011;7700;48.654;9.070;2022-12-18T14:28:59;31.60;;;20.33;;
15198;SDS011;7700;48.654;9.070;2022-12-18T14:31:29;33.40;;;21.60;;
15198;SDS011;7700;48.654;9.070;2022-12-18T14:33:55;32.33;;;20.00;;
15198;SDS011;7700;48.654;9.070;2022-12-18T14:36:23;33.47;;;21.13;;
15198;SDS011;7700;48.654;9.070;2022-12-18T14:38:51;37.33;;;22.23;;
15198;SDS011;7700;48.654;9.070;2022-12-18T14:41:18;33.87;;;20.17;;
15198;SDS011;7700;48.654;9.070;2022-12-18T14:43:46;32.20;;;21.80;;
15198;SDS011;7700;48.654;9.070;2022-12-18T14:48:58;32.00;;;22.33;;
15198;SDS011;7700;48.654;9.070;2022-12-18T14:51:25;32.63;;;21.30;;
15198;SDS011;7700;48.654;9.070;2022-12-18T14:53:55;34.33;;;22.50;;
15198;SDS011;7700;48.654;9.070;2022-12-18T14:58:48;35.03;;;22.67;;
15198;SDS011;7700;48.654;9.070;2022-12-18T15:01:34;33.73;;;22.83;;
15198;SDS011;7700;48.654;9.070;2022-12-18T15:04:02;34.27;;;19.57;;
15198;SDS011;7700;48.654;9.070;2022-12-18T15:08:58;33.90;;;21.47;;
15198;SDS011;7700;48.654;9.070;2022-12-18T15:13:53;33.73;;;21.77;;
15198;SDS011;7700;48.654;9.070;2022-12-18T15:16:19;31.27;;;20.13;;
15198;SDS011;7700;48.654;9.070;2022-12-18T15:18:45;34.33;;;20.27;;
15198;SDS011;7700;48.654;9.070;2022-12-18T15:21:16;34.00;;;22.57;;
15198;SDS011;7700;48.654;9.070;2022-12-18T15:26:09;36.27;;;22.20;;
15198;SDS011;7700;48.654;9.070;2022-12-18T15:28:36;34.77;;;22.40;;
15198;SDS011;7700;48.654;9.070;2022-12-18T15:31:04;38.83;;;24.57;;
15198;SDS011;7700;48.654;9.070;2022-12-18T15:33:31;46.50;;;33.07;;
15198;SDS011;7700;48.654;9.070;2022-12-18T15:36:07;41.83;;;25.87;;
15198;SDS011;7700;48.654;9.070;2022-12-18T15:38:33;37.97;;;21.80;;
15198;SDS011;7700;48.654;9.070;2022-12-18T15:41:00;32.17;;;22.00;;
15198;SDS011;7700;48.654;9.070;2022-12-18T15:43:26;39.27;;;22.47;;
15198;SDS011;7700;48.654;9.070;2022-12-18T15:45:59;36.63;;;22.23;;
15198;SDS011;7700;48.654;9.070;2022-12-18T15:48:25;38.17;;;22.67;;
15198;SDS011;7700;48.654;9.070;2022-12-18T15:50:52;35.57;;;21.27;;
15198;SDS011;7700;48.654;9.070;2022-12-18T15:53:18;34.23;;;21.27;;
15198;SDS011;7700;48.654;9.070;2022-12-18T15:55:44;38.10;;;21.53;;
15198;SDS011;7700;48.654;9.070;2022-12-18T15:58:29;30.40;;;19.23;;
15198;SDS011;7700;48.654;9.070;2022-12-18T16:00:55;31.63;;;20.20;;
15198;SDS011;7700;48.654;9.070;2022-12-18T16:03:21;30.33;;;18.90;;
15198;SDS011;7700;48.654;9.070;2022-12-18T16:05:47;31.03;;;19.30;;
15198;SDS011;7700;48.654;9.070;2022-12-18T16:08:13;32.67;;;20.77;;
15198;SDS011;7700;48.654;9.070;2022-12-18T16:10:39;32.87;;;20.17;;
15198;SDS011;7700;48.654;9.070;2022-12-18T16:13:06;34.80;;;22.00;;
15198;SDS011;7700;48.654;9.070;2022-12-18T16:15:32;39.40;;;24.17;;
15198;SDS011;7700;48.654;9.070;2022-12-18T16:17:58;45.47;;;24.57;;
15198;SDS011;7700;48.654;9.070;2022-12-18T16:20:24;45.87;;;25.40;;
15198;SDS011;7700;48.654;9.070;2022-12-18T16:22:50;37.30;;;23.67;;
15198;SDS011;7700;48.654;9.070;2022-12-18T16:25:17;38.20;;;22.17;;
15198;SDS011;7700;48.654;9.070;2022-12-18T16:27:43;32.90;;;21.30;;
15198;SDS011;7700;48.654;9.070;2022-12-18T16:30:17;30.57;;;20.07;;
15198;SDS011;7700;48.654;9.070;2022-12-18T16:32:43;31.67;;;21.37;;
15198;SDS011;7700;48.654;9.070;2022-12-18T16:35:14;35.13;;;21.20;;
15198;SDS011;7700;48.654;9.070;2022-12-18T16:37:41;31.63;;;20.40;;